createdAt,value
2023-03-06T00:01:20.336Z,4.77
2023-03-06T00:03:52.779Z,4.44
2023-03-06T00:06:24.403Z,5.16
2023-03-06T00:08:56.037Z,5.15
2023-03-06T00:11:27.790Z,5.20
2023-03-06T00:13:59.359Z,5.17
2023-03-06T00:16:30.973Z,4.81
2023-03-06T00:19:02.640Z,4.92
2023-03-06T00:21:34.264Z,4.60
2023-03-06T00:24:06.054Z,4.91
2023-03-06T00:26:37.668Z,4.65
2023-03-06T00:29:09.376Z,4.44
2023-03-06T00:31:41.960Z,4.59
2023-03-06T00:34:14.418Z,4.42
2023-03-06T00:36:46.106Z,4.75
2023-03-06T00:39:17.794Z,4.83
2023-03-06T00:41:49.407Z,4.72
2023-03-06T00:44:21.164Z,4.73
2023-03-06T00:46:52.819Z,4.25
2023-03-06T00:49:24.457Z,4.11
2023-03-06T00:51:56.058Z,4.13
2023-03-06T00:54:27.661Z,4.66
2023-03-06T00:56:59.363Z,4.64
2023-03-06T00:59:30.998Z,4.58
2023-03-06T01:02:02.980Z,4.50
2023-03-06T01:04:34.860Z,4.58
2023-03-06T01:07:06.481Z,4.44
2023-03-06T01:09:38.387Z,4.24
2023-03-06T01:12:10.197Z,4.66
2023-03-06T01:14:41.909Z,4.55
2023-03-06T01:17:14.519Z,4.28
2023-03-06T01:19:48.031Z,4.33
2023-03-06T01:22:21.347Z,4.47
2023-03-06T01:24:53.607Z,4.75
2023-03-06T01:27:26.285Z,4.29
2023-03-06T01:29:58.012Z,4.28
2023-03-06T01:32:29.887Z,4.18
2023-03-06T01:35:01.637Z,4.04
2023-03-06T01:37:35.555Z,4.02
2023-03-06T01:40:10.708Z,3.43
2023-03-06T01:42:43.177Z,3.99
2023-03-06T01:45:14.793Z,4.08
2023-03-06T01:47:46.748Z,3.69
2023-03-06T01:50:18.567Z,4.08
2023-03-06T01:52:59.523Z,3.98
2023-03-06T01:55:34.942Z,4.00
2023-03-06T01:58:12.646Z,4.11
2023-03-06T02:00:44.554Z,4.16
2023-03-06T02:03:23.370Z,4.13
2023-03-06T02:05:56.130Z,4.20
2023-03-06T02:08:30.009Z,4.12
2023-03-06T02:11:01.736Z,3.90
2023-03-06T02:13:35.193Z,3.95
2023-03-06T02:16:08.551Z,4.06
2023-03-06T02:18:42.732Z,4.01
2023-03-06T02:21:26.795Z,3.90
2023-03-06T02:24:24.686Z,4.11
2023-03-06T02:26:59.042Z,4.09
2023-03-06T02:29:31.777Z,3.99
2023-03-06T02:32:07.262Z,3.93
2023-03-06T02:34:39.276Z,3.72
2023-03-06T02:37:11.434Z,3.97
2023-03-06T02:39:50.104Z,3.93
2023-03-06T02:42:26.387Z,3.91
2023-03-06T02:45:03.282Z,3.89
2023-03-06T02:47:34.958Z,3.89
2023-03-06T02:50:06.939Z,3.75
2023-03-06T02:52:38.500Z,3.76
2023-03-06T02:55:10.639Z,3.61
2023-03-06T02:57:42.489Z,3.59
2023-03-06T03:00:15.372Z,3.80
2023-03-06T03:02:48.278Z,3.87
2023-03-06T03:05:20.736Z,3.73
2023-03-06T03:07:58.873Z,3.52
2023-03-06T03:10:32.453Z,3.66
2023-03-06T03:13:04.450Z,3.97
2023-03-06T03:15:38.328Z,3.61
2023-03-06T03:18:11.448Z,3.32
2023-03-06T03:20:43.097Z,3.64
2023-03-06T03:23:14.786Z,3.46
2023-03-06T03:25:46.445Z,3.81
2023-03-06T03:28:19.389Z,3.74
2023-03-06T03:30:51.586Z,3.77
2023-03-06T03:33:23.234Z,3.76
2023-03-06T03:35:59.903Z,3.99
2023-03-06T03:38:32.253Z,3.69
2023-03-06T03:41:04.849Z,3.94
2023-03-06T03:43:36.733Z,3.78
2023-03-06T03:46:08.625Z,3.85
2023-03-06T03:48:40.497Z,4.03
2023-03-06T03:51:13.954Z,3.96
2023-03-06T03:53:50.392Z,3.70
2023-03-06T03:56:26.054Z,3.73
2023-03-06T03:59:04.179Z,3.73
2023-03-06T04:01:42.521Z,3.45
2023-03-06T04:04:14.231Z,3.77
2023-03-06T04:06:48.187Z,3.75
2023-03-06T04:09:22.759Z,3.94
2023-03-06T04:11:55.097Z,4.08
2023-03-06T04:14:27.165Z,3.95
2023-03-06T04:16:59.267Z,3.98
2023-03-06T04:19:31.035Z,3.53
2023-03-06T04:22:03.273Z,3.85
2023-03-06T04:24:37.037Z,4.00
2023-03-06T04:27:08.753Z,3.87
2023-03-06T04:29:40.359Z,4.07
2023-03-06T04:32:12.117Z,4.03
2023-03-06T04:34:44.590Z,3.98
2023-03-06T04:37:22.261Z,4.36
2023-03-06T04:39:54.734Z,4.28
2023-03-06T04:42:28.517Z,3.93
2023-03-06T04:45:00.985Z,3.65
2023-03-06T04:47:32.661Z,4.13
2023-03-06T04:50:05.396Z,3.74
2023-03-06T04:52:37.208Z,4.03
2023-03-06T04:55:12.230Z,4.28
2023-03-06T04:57:45.935Z,3.67
2023-03-06T05:00:22.248Z,3.20
2023-03-06T05:02:54.142Z,3.84
2023-03-06T05:05:26.604Z,3.98
2023-03-06T05:07:58.445Z,4.01
2023-03-06T05:10:30.168Z,3.98
2023-03-06T05:13:01.957Z,3.90
2023-03-06T05:15:33.637Z,3.93
2023-03-06T05:18:05.431Z,3.85
2023-03-06T05:20:37.112Z,3.77
2023-03-06T05:23:09.160Z,3.43
2023-03-06T05:25:42.213Z,3.89
2023-03-06T05:28:13.882Z,3.82
2023-03-06T05:30:46.146Z,3.64
2023-03-06T05:33:18.359Z,3.75
2023-03-06T05:35:51.107Z,3.50
2023-03-06T05:38:22.826Z,2.93
2023-03-06T05:40:54.768Z,3.59
2023-03-06T05:43:26.488Z,3.30
2023-03-06T05:46:03.777Z,3.95
2023-03-06T05:48:35.838Z,3.99
2023-03-06T05:51:07.836Z,4.03
2023-03-06T05:53:40.181Z,3.85
2023-03-06T05:56:11.941Z,3.84
2023-03-06T05:58:43.770Z,4.07
2023-03-06T06:01:18.888Z,4.14
2023-03-06T06:03:51.091Z,4.13
2023-03-06T06:06:22.973Z,3.63
2023-03-06T06:08:54.688Z,4.02
2023-03-06T06:11:28.360Z,3.89
2023-03-06T06:14:00.392Z,4.13
2023-03-06T06:16:32.292Z,4.18
2023-03-06T06:19:04.178Z,4.29
2023-03-06T06:21:35.957Z,3.82
2023-03-06T06:24:07.608Z,3.62
2023-03-06T06:26:39.755Z,3.89
2023-03-06T06:29:13.384Z,4.13
2023-03-06T06:31:45.364Z,3.99
2023-03-06T06:34:16.996Z,4.22
2023-03-06T06:36:51.622Z,4.41
2023-03-06T06:39:25.227Z,4.58
2023-03-06T06:42:14.712Z,4.57
2023-03-06T06:44:48.594Z,4.47
2023-03-06T06:47:24.037Z,4.67
2023-03-06T06:49:57.285Z,4.77
2023-03-06T06:52:28.904Z,4.78
2023-03-06T06:55:00.569Z,4.52
2023-03-06T06:57:32.270Z,4.83
2023-03-06T07:00:05.749Z,5.12
2023-03-06T07:02:37.364Z,5.60
2023-03-06T07:05:09.641Z,6.15
2023-03-06T07:07:41.588Z,6.29
2023-03-06T07:10:15.615Z,6.32
2023-03-06T07:12:47.364Z,6.39
2023-03-06T07:15:19.056Z,6.87
2023-03-06T07:17:50.770Z,6.82
2023-03-06T07:20:22.779Z,7.34
2023-03-06T07:22:54.505Z,7.16
2023-03-06T07:25:26.151Z,7.35
2023-03-06T07:27:58.036Z,7.40
2023-03-06T07:30:30.572Z,7.12
2023-03-06T07:33:02.433Z,7.25
2023-03-06T07:35:34.128Z,6.83
2023-03-06T07:38:05.859Z,7.14
2023-03-06T07:40:38.319Z,7.29
2023-03-06T07:43:19.022Z,7.00
2023-03-06T07:46:00.032Z,7.08
2023-03-06T07:48:31.828Z,7.26
2023-03-06T07:51:12.899Z,7.42
2023-03-06T07:53:44.848Z,7.76
2023-03-06T07:56:18.018Z,8.12
2023-03-06T07:58:50.649Z,8.35
2023-03-06T08:01:22.548Z,7.97
2023-03-06T08:03:54.516Z,8.63
2023-03-06T08:06:27.868Z,8.67
2023-03-06T08:09:00.457Z,8.86
2023-03-06T08:11:32.226Z,9.03
2023-03-06T08:14:03.991Z,9.21
2023-03-06T08:16:35.950Z,9.96
2023-03-06T08:19:08.016Z,10.53
2023-03-06T08:21:42.378Z,10.99
2023-03-06T08:24:14.109Z,11.36
2023-03-06T08:26:46.432Z,12.53
2023-03-06T08:29:18.184Z,13.24
2023-03-06T08:31:50.169Z,13.94
2023-03-06T08:34:26.747Z,14.74
2023-03-06T08:36:58.489Z,14.81
2023-03-06T08:39:30.250Z,16.15
2023-03-06T08:42:02.140Z,17.40
2023-03-06T08:44:35.257Z,17.15
2023-03-06T08:47:07.292Z,17.84
2023-03-06T08:49:39.256Z,17.69
2023-03-06T08:52:11.692Z,16.03
2023-03-06T08:54:43.537Z,15.77
2023-03-06T08:57:15.306Z,16.36
2023-03-06T08:59:46.996Z,16.53
2023-03-06T09:02:18.750Z,14.68
2023-03-06T09:04:50.808Z,13.32
2023-03-06T09:07:22.529Z,16.06
2023-03-06T09:09:57.972Z,18.09
2023-03-06T09:12:32.667Z,19.22
2023-03-06T09:15:09.678Z,18.84
2023-03-06T09:17:41.722Z,18.55
2023-03-06T09:20:16.283Z,18.77
2023-03-06T09:22:48.455Z,20.04
2023-03-06T09:25:20.285Z,19.58
2023-03-06T09:28:08.636Z,17.53
2023-03-06T09:30:42.886Z,16.14
2023-03-06T09:33:15.345Z,15.90
2023-03-06T09:35:52.143Z,13.66
2023-03-06T09:38:26.978Z,14.99
2023-03-06T09:40:58.593Z,16.62
2023-03-06T09:43:42.733Z,16.09
2023-03-06T09:46:44.905Z,14.10
2023-03-06T09:49:35.306Z,16.63
2023-03-06T09:52:34.209Z,17.08
2023-03-06T09:55:25.583Z,16.37
2023-03-06T09:58:13.931Z,15.73
2023-03-06T10:01:02.829Z,17.14
2023-03-06T10:03:45.167Z,16.01
2023-03-06T10:06:37.165Z,15.63
2023-03-06T10:09:35.487Z,15.66
2023-03-06T10:12:16.767Z,14.94
2023-03-06T10:14:57.886Z,12.93
2023-03-06T10:17:36.090Z,13.09
2023-03-06T10:21:00.931Z,15.67
2023-03-06T10:23:54.444Z,13.82
2023-03-06T10:26:36.629Z,14.30
2023-03-06T10:29:40.165Z,13.68
2023-03-06T10:32:30.546Z,13.71
2023-03-06T10:35:19.093Z,12.31
2023-03-06T10:37:51.289Z,11.30
2023-03-06T10:40:34.612Z,11.69
2023-03-06T10:43:12.528Z,11.14
2023-03-06T10:45:49.989Z,12.21
2023-03-06T10:48:26.064Z,11.60
2023-03-06T10:51:18.519Z,11.31
2023-03-06T10:54:03.521Z,12.22
2023-03-06T10:56:38.785Z,12.74
2023-03-06T10:59:18.155Z,12.32
2023-03-06T11:01:54.575Z,11.66
2023-03-06T11:04:36.370Z,11.71
2023-03-06T11:07:22.814Z,12.50
2023-03-06T11:09:57.576Z,12.77
2023-03-06T11:12:33.633Z,12.44
2023-03-06T11:15:15.557Z,11.86
2023-03-06T11:18:00.849Z,12.37
2023-03-06T11:20:51.615Z,11.58
2023-03-06T11:23:29.978Z,11.64
2023-03-06T11:26:16.923Z,11.72
2023-03-06T11:28:57.337Z,11.35
2023-03-06T11:31:34.831Z,12.82
2023-03-06T11:34:18.184Z,13.02
2023-03-06T11:37:00.369Z,12.66
2023-03-06T11:39:39.564Z,12.46
2023-03-06T11:46:02.030Z,11.19
2023-03-06T11:48:54.321Z,11.07
2023-03-06T11:51:33.188Z,11.65
2023-03-06T11:54:04.892Z,10.85
2023-03-06T11:56:45.399Z,11.17
2023-03-06T11:59:25.890Z,11.41
2023-03-06T12:02:00.529Z,11.78
2023-03-06T12:05:06.654Z,13.30
2023-03-06T12:07:55.946Z,13.02
2023-03-06T12:10:52.460Z,12.89
2023-03-06T12:13:36.593Z,12.28
2023-03-06T12:16:30.060Z,12.69
2023-03-06T12:19:23.618Z,12.50
2023-03-06T12:22:31.292Z,11.25
2023-03-06T12:25:28.111Z,12.17
2023-03-06T12:28:19.960Z,11.89
2023-03-06T12:31:07.712Z,11.42
2023-03-06T12:33:53.354Z,10.74
2023-03-06T12:36:51.445Z,10.67
2023-03-06T12:39:35.260Z,11.64
2023-03-06T12:42:23.072Z,11.10
2023-03-06T12:45:01.160Z,10.17
2023-03-06T12:47:42.288Z,10.49
2023-03-06T12:50:23.975Z,10.20
2023-03-06T12:53:02.250Z,10.53
2023-03-06T12:55:50.553Z,10.46
2023-03-06T12:58:28.150Z,10.74
2023-03-06T13:01:04.544Z,11.00
2023-03-06T13:04:11.375Z,11.50
2023-03-06T13:06:58.245Z,11.19
2023-03-06T13:09:35.978Z,10.85
2023-03-06T13:12:39.956Z,11.18
2023-03-06T13:15:46.398Z,11.35
2023-03-06T13:18:23.761Z,11.25
2023-03-06T13:20:56.661Z,10.91
2023-03-06T13:23:34.302Z,10.63
2023-03-06T13:26:08.641Z,11.23
2023-03-06T13:28:44.194Z,12.13
2023-03-06T13:31:29.393Z,11.98
2023-03-06T13:34:24.029Z,12.01
2023-03-06T13:37:18.092Z,11.77
2023-03-06T13:39:55.810Z,12.11
2023-03-06T13:42:37.121Z,12.25
2023-03-06T13:45:16.883Z,12.00
2023-03-06T13:48:15.568Z,12.03
2023-03-06T13:50:46.899Z,11.82
2023-03-06T13:53:49.283Z,12.39
2023-03-06T13:56:53.482Z,11.66
2023-03-06T13:59:54.393Z,12.32
2023-03-06T14:02:47.385Z,11.39
2023-03-06T14:05:20.107Z,11.91
2023-03-06T14:08:30.304Z,12.48
2023-03-06T14:11:05.879Z,12.29
2023-03-06T14:13:49.434Z,11.91
2023-03-06T14:16:32.675Z,12.43
2023-03-06T14:19:18.666Z,12.10
2023-03-06T14:21:57.845Z,11.56
2023-03-06T14:24:41.422Z,12.06
2023-03-06T14:27:19.243Z,12.35
2023-03-06T14:29:51.023Z,12.71
2023-03-06T14:32:24.171Z,12.11
2023-03-06T14:34:56.604Z,12.17
2023-03-06T14:37:28.402Z,11.87
2023-03-06T14:40:00.177Z,11.90
2023-03-06T14:42:31.908Z,11.82
2023-03-06T14:45:19.101Z,12.21
2023-03-06T14:47:52.883Z,11.71
2023-03-06T14:50:25.906Z,12.22
2023-03-06T14:53:15.791Z,12.72
2023-03-06T14:55:57.061Z,12.66
2023-03-06T14:58:44.725Z,13.05
2023-03-06T15:01:26.489Z,13.12
2023-03-06T15:04:00.922Z,14.00
2023-03-06T15:06:39.845Z,14.23
2023-03-06T15:09:20.483Z,14.72
2023-03-06T15:11:55.210Z,15.06
2023-03-06T15:14:39.981Z,17.52
2023-03-06T15:17:15.782Z,17.94
2023-03-06T15:19:49.965Z,17.25
2023-03-06T15:22:26.736Z,19.81
2023-03-06T15:25:24.804Z,20.47
2023-03-06T15:28:00.139Z,21.24
2023-03-06T15:30:36.922Z,20.38
2023-03-06T15:33:26.589Z,19.22
2023-03-06T15:36:02.386Z,21.58
2023-03-06T15:38:41.701Z,19.20
2023-03-06T15:41:27.750Z,18.74
2023-03-06T15:44:02.630Z,19.14
2023-03-06T15:46:35.072Z,18.72
2023-03-06T15:49:16.524Z,15.65
2023-03-06T15:51:48.144Z,15.20
2023-03-06T15:54:19.984Z,15.40
2023-03-06T15:56:51.643Z,13.97
2023-03-06T15:59:28.392Z,13.09
2023-03-06T16:02:13.787Z,13.58
2023-03-06T16:04:46.319Z,12.97
2023-03-06T16:07:23.716Z,13.33
2023-03-06T16:09:55.566Z,12.68
2023-03-06T16:12:30.274Z,12.42
2023-03-06T16:15:02.121Z,12.28
2023-03-06T16:17:36.926Z,11.98
2023-03-06T16:20:14.973Z,12.02
2023-03-06T16:22:49.227Z,12.08
2023-03-06T16:25:24.372Z,12.17
2023-03-06T16:27:59.143Z,11.70
2023-03-06T16:30:33.390Z,11.54
2023-03-06T16:33:05.525Z,11.53
2023-03-06T16:35:37.204Z,11.32
2023-03-06T16:38:10.591Z,11.24
2023-03-06T16:40:43.288Z,11.03
2023-03-06T16:43:16.285Z,11.00
2023-03-06T16:45:47.946Z,11.38
2023-03-06T16:48:19.574Z,11.01
2023-03-06T16:50:51.175Z,10.44
2023-03-06T16:53:22.872Z,10.28
2023-03-06T16:55:54.532Z,9.91
2023-03-06T16:58:26.142Z,10.14
2023-03-06T17:00:57.795Z,9.91
2023-03-06T17:03:29.430Z,9.67
2023-03-06T17:06:04.123Z,9.33
2023-03-06T17:08:35.765Z,9.39
2023-03-06T17:11:07.841Z,9.14
2023-03-06T17:13:39.956Z,8.88
2023-03-06T17:16:13.701Z,8.89
2023-03-06T17:18:46.056Z,8.70
2023-03-06T17:21:17.649Z,8.61
2023-03-06T17:23:49.250Z,8.58
2023-03-06T17:26:20.945Z,8.17
2023-03-06T17:28:52.694Z,7.93
2023-03-06T17:31:27.148Z,7.72
2023-03-06T17:33:58.788Z,7.61
2023-03-06T17:36:31.526Z,7.81
2023-03-06T17:39:03.665Z,7.98
2023-03-06T17:41:35.484Z,8.12
2023-03-06T17:44:07.121Z,8.30
2023-03-06T17:46:38.793Z,8.23
2023-03-06T17:49:10.524Z,8.13
2023-03-06T17:51:42.250Z,8.23
2023-03-06T17:54:13.898Z,8.86
2023-03-06T17:56:45.577Z,8.90
2023-03-06T17:59:17.166Z,8.86
2023-03-06T18:02:11.046Z,8.50
2023-03-06T18:04:43.021Z,8.75
2023-03-06T18:07:14.779Z,8.83
2023-03-06T18:09:46.500Z,8.85
2023-03-06T18:12:18.132Z,8.82
2023-03-06T18:14:49.725Z,8.50
2023-03-06T18:17:21.571Z,8.37
2023-03-06T18:19:53.235Z,8.45
2023-03-06T18:22:24.967Z,8.26
2023-03-06T18:24:56.631Z,7.98
2023-03-06T18:27:28.351Z,8.31
2023-03-06T18:30:00.200Z,8.37
2023-03-06T18:32:31.975Z,8.22
2023-03-06T18:35:04.141Z,8.16
2023-03-06T18:37:35.902Z,7.45
2023-03-06T18:40:08.852Z,7.98
2023-03-06T18:42:40.741Z,8.04
2023-03-06T18:45:12.522Z,7.92
2023-03-06T18:47:44.413Z,8.04
2023-03-06T18:50:16.262Z,8.47
2023-03-06T18:52:47.890Z,8.44
2023-03-06T18:55:19.539Z,8.45
2023-03-06T18:57:51.279Z,8.37
2023-03-06T19:00:23.400Z,8.65
2023-03-06T19:02:55.804Z,8.57
2023-03-06T19:05:28.204Z,8.56
2023-03-06T19:08:00.336Z,7.90
2023-03-06T19:10:39.808Z,8.26
2023-03-06T19:13:12.282Z,7.93
2023-03-06T19:15:49.179Z,8.08
2023-03-06T19:18:20.972Z,7.95
2023-03-06T19:20:52.733Z,7.80
2023-03-06T19:23:24.656Z,7.53
2023-03-06T19:25:57.421Z,7.34
2023-03-06T19:28:30.220Z,7.35
2023-03-06T19:31:28.414Z,7.18
2023-03-06T19:34:00.442Z,7.26
2023-03-06T19:36:33.907Z,7.00
2023-03-06T19:39:08.206Z,7.04
2023-03-06T19:41:40.700Z,7.46
2023-03-06T19:44:12.672Z,7.27
2023-03-06T19:46:44.342Z,7.64
2023-03-06T19:49:16.773Z,7.56
2023-03-06T19:51:48.495Z,7.63
2023-03-06T19:54:20.219Z,7.76
2023-03-06T19:56:51.938Z,7.65
2023-03-06T19:59:23.852Z,7.83
2023-03-06T20:01:55.661Z,7.96
2023-03-06T20:04:30.648Z,7.81
2023-03-06T20:07:02.421Z,8.01
2023-03-06T20:09:34.069Z,7.81
2023-03-06T20:12:08.147Z,7.65
2023-03-06T20:14:40.567Z,7.66
2023-03-06T20:17:12.225Z,7.39
2023-03-06T20:19:44.173Z,7.48
2023-03-06T20:22:15.796Z,7.65
2023-03-06T20:24:47.437Z,7.54
2023-03-06T20:27:19.312Z,7.41
2023-03-06T20:29:51.047Z,7.35
2023-03-06T20:32:22.632Z,7.39
2023-03-06T20:34:54.257Z,7.67
2023-03-06T20:37:25.974Z,7.62
2023-03-06T20:39:57.572Z,7.61
2023-03-06T20:42:29.134Z,7.28
2023-03-06T20:45:00.808Z,7.00
2023-03-06T20:47:32.453Z,6.98
2023-03-06T20:50:04.452Z,6.73
2023-03-06T20:52:36.102Z,6.42
2023-03-06T20:55:08.126Z,6.26
2023-03-06T20:57:40.030Z,6.36
2023-03-06T21:00:12.093Z,6.63
2023-03-06T21:02:43.766Z,6.98
2023-03-06T21:05:15.509Z,6.95
2023-03-06T21:07:47.888Z,7.12
2023-03-06T21:10:19.441Z,7.00
2023-03-06T21:12:51.150Z,6.66
2023-03-06T21:15:22.790Z,6.41
2023-03-06T21:17:54.458Z,6.63
2023-03-06T21:20:26.166Z,6.98
2023-03-06T21:22:57.827Z,6.99
2023-03-06T21:25:29.751Z,6.80
2023-03-06T21:28:01.494Z,7.02
2023-03-06T21:30:34.362Z,6.89
2023-03-06T21:33:05.932Z,7.17
2023-03-06T21:35:41.690Z,7.05
2023-03-06T21:38:13.916Z,7.28
2023-03-06T21:40:45.982Z,7.12
2023-03-06T21:43:17.790Z,6.99
2023-03-06T21:45:49.845Z,7.22
2023-03-06T21:48:21.725Z,7.04
2023-03-06T21:51:02.536Z,7.04
2023-03-06T21:53:34.643Z,7.11
2023-03-06T21:56:06.706Z,6.86
2023-03-06T21:58:39.443Z,7.09
2023-03-06T22:01:17.659Z,6.68
2023-03-06T22:03:49.366Z,6.93
2023-03-06T22:06:24.398Z,7.33
2023-03-06T22:08:58.018Z,7.22
2023-03-06T22:11:30.266Z,7.07
2023-03-06T22:14:01.855Z,7.19
2023-03-06T22:16:33.684Z,6.68
2023-03-06T22:19:08.388Z,6.99
2023-03-06T22:21:39.925Z,7.03
2023-03-06T22:24:11.558Z,7.31
2023-03-06T22:26:43.228Z,6.79
2023-03-06T22:29:14.850Z,6.83
2023-03-06T22:31:46.558Z,6.96
2023-03-06T22:34:18.434Z,6.55
2023-03-06T22:36:49.977Z,6.63
2023-03-06T22:39:21.605Z,6.83
2023-03-06T22:41:56.956Z,6.45
2023-03-06T22:44:28.728Z,6.93
2023-03-06T22:47:00.309Z,7.09
2023-03-06T22:49:32.146Z,6.65
2023-03-06T22:52:03.858Z,7.03
2023-03-06T22:54:35.652Z,6.73
2023-03-06T22:57:07.268Z,7.11
2023-03-06T22:59:39.077Z,7.09
2023-03-06T23:02:10.645Z,7.54
2023-03-06T23:04:42.371Z,7.44
2023-03-06T23:07:14.190Z,7.31
2023-03-06T23:09:46.110Z,7.28
2023-03-06T23:12:36.084Z,6.89
2023-03-06T23:15:26.301Z,6.69
2023-03-06T23:18:16.606Z,7.25
2023-03-06T23:21:12.466Z,6.91
2023-03-06T23:24:02.848Z,7.15
2023-03-06T23:26:34.996Z,7.19
2023-03-06T23:29:06.584Z,7.08
2023-03-06T23:31:38.192Z,6.93
2023-03-06T23:34:09.901Z,6.65
2023-03-06T23:36:41.499Z,6.91
2023-03-06T23:39:13.244Z,6.56
2023-03-06T23:41:44.930Z,6.77
2023-03-06T23:44:16.553Z,6.57
2023-03-06T23:46:48.107Z,6.53
2023-03-06T23:49:21.874Z,7.12
2023-03-06T23:51:53.673Z,7.02
2023-03-06T23:54:25.370Z,6.72
2023-03-06T23:56:56.995Z,7.03
2023-03-06T23:59:28.696Z,7.14
